Time;durP1;ratioP1;P1;durP2;ratioP2;P2;SDS_P1;SDS_P2;PMS_P1;PMS_P2;Temp;Humidity;BMP_temperature;BMP_pressure;BME280_temperature;BME280_humidity;BME280_pressure;Samples;Min_cycle;Max_cycle;Signal;HPM_P1;HPM_P2
2021/08/02 00:00:07;;;;;;;2.50;2.30;;;;;;;;;;4995741;28;20217;-72
2021/08/02 00:03:28;;;;;;;5.80;2.50;;;;;;;;;;4985178;28;20214;-72
2021/08/02 00:06:49;;;;;;;2.87;2.60;;;;;;;;;;5006171;28;20534;-72
2021/08/02 00:09:58;;;;;;;4.60;2.63;;;;;;;;;;5004823;28;20193;-72
2021/08/02 00:13:09;;;;;;;3.17;2.43;;;;;;;;;;5001357;28;20209;-72
2021/08/02 00:16:14;;;;;;;3.67;2.27;;;;;;;;;;5011664;28;20186;-72
2021/08/02 00:19:19;;;;;;;3.33;2.37;;;;;;;;;;5002852;28;20665;-72
2021/08/02 00:22:23;;;;;;;5.50;2.53;;;;;;;;;;4995504;28;20218;-72
2021/08/02 00:25:27;;;;;;;3.40;2.40;;;;;;;;;;4997567;28;20205;-73
2021/08/02 00:28:33;;;;;;;3.60;2.33;;;;;;;;;;5014910;28;20205;-72
2021/08/02 00:31:37;;;;;;;3.27;2.50;;;;;;;;;;4976579;28;20186;-72
2021/08/02 00:34:42;;;;;;;3.70;2.67;;;;;;;;;;4987454;28;20189;-72
2021/08/02 00:37:58;;;;;;;3.47;2.83;;;;;;;;;;4994887;28;20662;-72
2021/08/02 00:41:27;;;;;;;4.33;2.60;;;;;;;;;;5001591;28;20197;-72
2021/08/02 00:45:09;;;;;;;4.23;2.60;;;;;;;;;;5011651;28;20197;-72
2021/08/02 00:48:17;;;;;;;3.27;2.97;;;;;;;;;;4978071;28;20218;-73
2021/08/02 00:51:22;;;;;;;4.87;2.63;;;;;;;;;;4978133;28;20178;-72
2021/08/02 00:54:29;;;;;;;4.30;2.93;;;;;;;;;;5002235;28;20187;-72
2021/08/02 00:57:37;;;;;;;4.03;3.27;;;;;;;;;;4971655;28;20194;-72
2021/08/02 01:00:43;;;;;;;4.43;3.10;;;;;;;;;;4972033;28;20190;-72
2021/08/02 01:03:48;;;;;;;5.00;3.20;;;;;;;;;;4994527;28;20225;-72
2021/08/02 01:06:53;;;;;;;5.23;3.10;;;;;;;;;;4996032;28;20202;-72
2021/08/02 01:09:59;;;;;;;5.00;3.23;;;;;;;;;;4971740;28;20189;-72
2021/08/02 01:13:07;;;;;;;6.37;3.60;;;;;;;;;;5001568;28;20217;-72
2021/08/02 01:16:14;;;;;;;4.00;3.50;;;;;;;;;;4995071;28;20186;-72
2021/08/02 01:19:22;;;;;;;3.80;3.40;;;;;;;;;;4981946;28;20181;-72
2021/08/02 01:22:30;;;;;;;5.70;3.40;;;;;;;;;;5002103;28;20217;-72
2021/08/02 01:25:36;;;;;;;4.07;3.40;;;;;;;;;;5012543;28;20178;-72
2021/08/02 01:29:18;;;;;;;4.07;3.60;;;;;;;;;;5009680;28;20213;-72
2021/08/02 01:32:25;;;;;;;3.70;3.40;;;;;;;;;;5013721;28;20221;-72
2021/08/02 01:35:37;;;;;;;3.63;3.20;;;;;;;;;;4992501;28;20190;-72
2021/08/02 01:38:41;;;;;;;4.23;3.13;;;;;;;;;;5009047;28;20186;-73
2021/08/02 01:41:51;;;;;;;3.50;3.20;;;;;;;;;;5000635;28;20198;-73
2021/08/02 01:44:55;;;;;;;5.27;3.47;;;;;;;;;;4972055;28;20194;-73
2021/08/02 01:48:17;;;;;;;4.47;3.47;;;;;;;;;;4990807;28;20209;-73
2021/08/02 01:51:49;;;;;;;5.47;3.50;;;;;;;;;;5002000;28;20186;-72
2021/08/02 01:55:06;;;;;;;3.73;3.30;;;;;;;;;;4995051;28;20644;-73
2021/08/02 01:58:10;;;;;;;5.23;3.93;;;;;;;;;;5005113;28;20205;-72
2021/08/02 02:01:25;;;;;;;4.27;3.73;;;;;;;;;;4992063;28;20197;-73
2021/08/02 02:04:37;;;;;;;4.93;3.67;;;;;;;;;;5001671;28;20193;-72
2021/08/02 02:07:59;;;;;;;7.67;3.83;;;;;;;;;;4995223;28;20530;-73
2021/08/02 02:11:10;;;;;;;3.90;3.47;;;;;;;;;;4999441;28;20189;-73
2021/08/02 02:14:27;;;;;;;4.50;3.57;;;;;;;;;;4982045;28;20186;-73
2021/08/02 02:17:36;;;;;;;3.80;3.20;;;;;;;;;;4982023;28;20178;-73
2021/08/02 02:20:43;;;;;;;7.87;3.70;;;;;;;;;;4981679;28;20198;-73
2021/08/02 02:23:48;;;;;;;4.07;3.63;;;;;;;;;;4981589;28;20689;-73
2021/08/02 02:26:55;;;;;;;8.87;3.70;;;;;;;;;;5003804;28;20550;-73
2021/08/02 02:30:04;;;;;;;5.90;3.57;;;;;;;;;;4981913;28;20183;-73
2021/08/02 02:33:12;;;;;;;6.90;4.13;;;;;;;;;;5001132;28;20229;-73
2021/08/02 02:36:18;;;;;;;5.13;3.93;;;;;;;;;;5001387;28;20178;-73
2021/08/02 02:39:26;;;;;;;6.63;4.17;;;;;;;;;;4995588;28;20186;-72
2021/08/02 02:42:30;;;;;;;4.97;4.00;;;;;;;;;;4996519;28;20217;-73
2021/08/02 02:45:36;;;;;;;5.73;3.83;;;;;;;;;;5000488;28;20534;-73
2021/08/02 02:48:40;;;;;;;6.73;4.57;;;;;;;;;;5016485;28;20209;-72
2021/08/02 02:51:48;;;;;;;6.83;4.50;;;;;;;;;;4993808;28;20174;-73
2021/08/02 02:54:54;;;;;;;4.50;4.00;;;;;;;;;;5003565;28;20529;-72
2021/08/02 02:58:01;;;;;;;7.40;3.90;;;;;;;;;;4974135;28;20540;-74
2021/08/02 03:01:08;;;;;;;6.50;4.40;;;;;;;;;;5007302;28;20522;-73
2021/08/02 03:04:15;;;;;;;5.60;4.33;;;;;;;;;;4987931;28;20178;-73
2021/08/02 03:07:22;;;;;;;6.83;4.50;;;;;;;;;;5013860;28;20189;-73
2021/08/02 03:10:27;;;;;;;6.30;4.73;;;;;;;;;;5015494;28;20526;-73
2021/08/02 03:13:34;;;;;;;7.80;4.47;;;;;;;;;;5004305;28;20217;-73
2021/08/02 03:16:39;;;;;;;5.90;4.73;;;;;;;;;;5004489;28;20621;-73
2021/08/02 03:19:43;;;;;;;10.47;4.80;;;;;;;;;;5008250;28;20182;-73
2021/08/02 03:22:52;;;;;;;7.67;4.33;;;;;;;;;;4997041;28;20229;-73
2021/08/02 03:26:21;;;;;;;7.47;4.50;;;;;;;;;;4984735;28;20194;-74
2021/08/02 03:29:34;;;;;;;5.47;4.50;;;;;;;;;;4995102;28;20213;-72
2021/08/02 03:32:42;;;;;;;7.87;4.33;;;;;;;;;;5014686;28;20225;-73
2021/08/02 03:35:49;;;;;;;6.30;4.53;;;;;;;;;;5005890;28;20194;-72
2021/08/02 03:38:54;;;;;;;5.57;3.87;;;;;;;;;;4984201;28;20198;-72
2021/08/02 03:41:59;;;;;;;6.87;3.97;;;;;;;;;;4996377;28;20182;-73
2021/08/02 03:45:04;;;;;;;7.10;3.40;;;;;;;;;;4996487;28;20716;-73
2021/08/02 03:48:09;;;;;;;4.90;4.07;;;;;;;;;;4997366;28;20506;-73
2021/08/02 03:51:13;;;;;;;6.40;4.10;;;;;;;;;;5014574;28;20190;-73
2021/08/02 03:54:17;;;;;;;6.37;3.93;;;;;;;;;;5014967;28;20223;-73
2021/08/02 03:57:22;;;;;;;9.87;4.03;;;;;;;;;;5015374;28;20209;-73
2021/08/02 04:00:26;;;;;;;9.37;4.30;;;;;;;;;;5013619;28;20181;-73
2021/08/02 04:03:31;;;;;;;8.43;4.60;;;;;;;;;;5015585;28;20221;-73
2021/08/02 04:06:35;;;;;;;7.53;4.33;;;;;;;;;;5012325;28;20538;-73
2021/08/02 04:09:40;;;;;;;5.60;3.80;;;;;;;;;;4995896;28;20214;-73
2021/08/02 04:12:44;;;;;;;4.63;3.67;;;;;;;;;;4996071;28;20218;-73
2021/08/02 04:15:48;;;;;;;5.77;4.33;;;;;;;;;;4988329;28;20194;-73
2021/08/02 04:18:52;;;;;;;5.13;3.70;;;;;;;;;;5001487;28;20189;-73
2021/08/02 04:21:58;;;;;;;9.10;4.00;;;;;;;;;;4990479;28;20190;-73
2021/08/02 04:25:03;;;;;;;6.37;3.23;;;;;;;;;;5015760;28;20494;-73
2021/08/02 04:28:07;;;;;;;5.00;3.80;;;;;;;;;;5002179;28;20178;-73
2021/08/02 04:31:12;;;;;;;4.87;3.80;;;;;;;;;;5008005;28;20198;-73
2021/08/02 04:34:16;;;;;;;4.93;3.70;;;;;;;;;;5001283;28;20193;-74
2021/08/02 04:37:20;;;;;;;5.93;4.07;;;;;;;;;;4995698;28;20186;-74
2021/08/02 04:40:24;;;;;;;6.87;3.90;;;;;;;;;;5004629;28;20194;-73
2021/08/02 04:43:29;;;;;;;8.23;4.27;;;;;;;;;;4983104;28;20217;-73
2021/08/02 04:46:33;;;;;;;7.63;4.30;;;;;;;;;;4995193;28;20625;-73
2021/08/02 04:49:36;;;;;;;6.07;4.27;;;;;;;;;;4995088;28;20681;-73
2021/08/02 04:52:42;;;;;;;6.40;4.03;;;;;;;;;;5005197;28;20221;-73
2021/08/02 04:55:46;;;;;;;4.93;3.93;;;;;;;;;;4995321;28;20178;-72
2021/08/02 04:58:50;;;;;;;4.87;4.33;;;;;;;;;;5011147;28;20201;-73
2021/08/02 05:01:54;;;;;;;6.23;4.47;;;;;;;;;;5000630;28;20190;-73
2021/08/02 05:04:58;;;;;;;7.27;5.13;;;;;;;;;;5004858;23;20228;-75
2021/08/02 05:08:03;;;;;;;7.47;4.73;;;;;;;;;;5033924;28;20177;-75
2021/08/02 05:11:07;;;;;;;6.20;4.97;;;;;;;;;;5033609;28;20192;-76
2021/08/02 05:14:11;;;;;;;5.90;4.20;;;;;;;;;;5012764;28;20552;-77
2021/08/02 05:17:15;;;;;;;6.20;3.90;;;;;;;;;;4995253;28;20530;-77
2021/08/02 05:20:19;;;;;;;5.77;3.70;;;;;;;;;;5009915;28;20201;-77
2021/08/02 05:23:23;;;;;;;5.80;4.30;;;;;;;;;;5002138;28;20217;-77
2021/08/02 05:26:27;;;;;;;5.67;3.60;;;;;;;;;;4990589;28;20193;-77
2021/08/02 05:29:31;;;;;;;6.37;3.57;;;;;;;;;;5000876;28;20688;-78
2021/08/02 05:32:35;;;;;;;8.57;3.70;;;;;;;;;;5011529;28;20577;-77
2021/08/02 05:35:40;;;;;;;4.20;3.33;;;;;;;;;;4996963;28;20190;-77
2021/08/02 05:38:44;;;;;;;5.57;3.10;;;;;;;;;;5014041;28;20189;-77
2021/08/02 05:41:48;;;;;;;3.33;3.03;;;;;;;;;;5013950;28;20244;-77
2021/08/02 05:44:51;;;;;;;3.53;3.23;;;;;;;;;;5001613;28;20197;-77
2021/08/02 05:47:56;;;;;;;7.27;3.60;;;;;;;;;;5002096;28;20185;-76
2021/08/02 05:51:00;;;;;;;5.77;4.10;;;;;;;;;;4988364;28;20680;-77
2021/08/02 05:54:04;;;;;;;8.30;2.97;;;;;;;;;;4994978;28;20716;-76
2021/08/02 05:57:08;;;;;;;8.17;4.50;;;;;;;;;;4998286;28;20637;-77
2021/08/02 06:00:13;;;;;;;6.13;5.23;;;;;;;;;;5013049;28;20513;-77
2021/08/02 06:03:18;;;;;;;10.50;5.70;;;;;;;;;;5003490;28;20224;-77
2021/08/02 06:06:22;;;;;;;9.23;4.10;;;;;;;;;;5012635;28;20563;-77
2021/08/02 06:09:27;;;;;;;4.83;3.80;;;;;;;;;;4993757;28;20214;-78
2021/08/02 06:12:31;;;;;;;4.77;3.53;;;;;;;;;;5004193;28;20541;-77
2021/08/02 06:15:34;;;;;;;5.23;3.70;;;;;;;;;;4995887;28;20530;-77
2021/08/02 06:18:38;;;;;;;6.47;3.67;;;;;;;;;;4986814;28;20210;-78
2021/08/02 06:21:43;;;;;;;4.20;3.73;;;;;;;;;;4997843;28;20210;-77
2021/08/02 06:24:47;;;;;;;4.30;3.90;;;;;;;;;;5004933;28;20201;-77
2021/08/02 06:27:51;;;;;;;4.97;3.80;;;;;;;;;;5003656;28;20189;-77
2021/08/02 06:30:55;;;;;;;9.33;6.33;;;;;;;;;;4991325;28;20238;-77
2021/08/02 06:33:59;;;;;;;7.33;4.87;;;;;;;;;;4986842;28;20221;-77
2021/08/02 06:37:03;;;;;;;7.73;4.00;;;;;;;;;;4997144;28;20198;-78
2021/08/02 06:40:12;;;;;;;6.73;4.27;;;;;;;;;;4979786;28;20194;-77
2021/08/02 06:43:16;;;;;;;6.77;4.10;;;;;;;;;;4985157;28;20221;-77
2021/08/02 06:46:20;;;;;;;5.37;3.77;;;;;;;;;;4985087;28;20194;-77
2021/08/02 06:49:24;;;;;;;6.23;3.63;;;;;;;;;;4996834;28;20225;-77
2021/08/02 06:52:28;;;;;;;6.13;3.67;;;;;;;;;;4968803;28;20226;-78
2021/08/02 06:55:32;;;;;;;5.57;3.30;;;;;;;;;;4993487;28;20201;-77
2021/08/02 06:58:36;;;;;;;5.50;3.80;;;;;;;;;;5016936;28;20205;-77
2021/08/02 07:01:40;;;;;;;6.37;3.57;;;;;;;;;;5001459;28;20198;-77
2021/08/02 07:04:45;;;;;;;4.43;3.10;;;;;;;;;;4984617;28;20186;-78
2021/08/02 07:07:49;;;;;;;7.10;3.50;;;;;;;;;;4976263;28;20194;-77
2021/08/02 07:10:53;;;;;;;5.40;4.13;;;;;;;;;;4977408;28;20211;-77
2021/08/02 07:13:57;;;;;;;4.53;4.00;;;;;;;;;;4987991;28;20218;-77
2021/08/02 07:17:01;;;;;;;5.63;4.73;;;;;;;;;;4997033;28;20643;-77
2021/08/02 07:20:06;;;;;;;4.67;2.83;;;;;;;;;;4977455;28;20186;-77
2021/08/02 07:23:10;;;;;;;5.10;2.83;;;;;;;;;;4985239;28;20696;-77
2021/08/02 07:26:14;;;;;;;4.17;2.83;;;;;;;;;;4995674;28;20667;-77
2021/08/02 07:29:19;;;;;;;5.07;3.03;;;;;;;;;;4996082;28;20194;-77
2021/08/02 07:32:23;;;;;;;5.50;3.17;;;;;;;;;;4995874;28;20213;-77
2021/08/02 07:35:28;;;;;;;4.37;2.70;;;;;;;;;;4979335;28;20191;-78
2021/08/02 07:38:32;;;;;;;3.33;2.53;;;;;;;;;;4995796;28;20198;-78
2021/08/02 07:41:36;;;;;;;3.03;2.43;;;;;;;;;;4995985;28;20649;-77
2021/08/02 07:44:40;;;;;;;8.47;2.87;;;;;;;;;;4984675;28;20183;-77
2021/08/02 07:47:44;;;;;;;2.20;2.00;;;;;;;;;;4979946;28;20182;-77
2021/08/02 07:50:48;;;;;;;4.73;2.40;;;;;;;;;;4995455;28;20213;-77
2021/08/02 07:53:54;;;;;;;3.53;2.87;;;;;;;;;;4954222;28;20555;-77
2021/08/02 07:56:58;;;;;;;5.43;3.20;;;;;;;;;;4971134;28;20186;-77
2021/08/02 08:00:07;;;;;;;4.63;4.13;;;;;;;;;;4984606;28;20182;-77
2021/08/02 08:03:19;;;;;;;3.30;2.53;;;;;;;;;;4984435;28;20248;-77
2021/08/02 08:06:23;;;;;;;4.77;2.30;;;;;;;;;;4995624;28;20213;-78
2021/08/02 08:09:27;;;;;;;10.03;2.40;;;;;;;;;;4983886;28;20534;-76
2021/08/02 08:12:31;;;;;;;4.00;3.10;;;;;;;;;;4983526;28;20222;-77
2021/08/02 08:15:35;;;;;;;9.13;8.23;;;;;;;;;;4964931;28;20190;-78
2021/08/02 08:18:39;;;;;;;5.30;3.63;;;;;;;;;;4995525;28;20193;-76
2021/08/02 08:21:43;;;;;;;3.33;2.37;;;;;;;;;;4983302;28;20202;-77
2021/08/02 08:24:49;;;;;;;5.10;2.57;;;;;;;;;;4995497;28;20194;-77
2021/08/02 08:27:53;;;;;;;3.70;2.10;;;;;;;;;;4983639;28;20201;-77
2021/08/02 08:30:57;;;;;;;2.50;1.93;;;;;;;;;;4983165;28;20217;-76
2021/08/02 08:34:01;;;;;;;2.60;2.20;;;;;;;;;;4984245;28;20218;-77
2021/08/02 08:37:06;;;;;;;5.83;2.30;;;;;;;;;;4995519;28;20186;-77
2021/08/02 08:40:11;;;;;;;16.73;14.97;;;;;;;;;;4995712;28;20178;-76
2021/08/02 08:43:18;;;;;;;10.47;9.60;;;;;;;;;;4994583;28;20585;-77
2021/08/02 08:46:23;;;;;;;4.03;3.67;;;;;;;;;;4982944;28;20637;-77
2021/08/02 08:49:29;;;;;;;2.40;1.97;;;;;;;;;;4996279;28;20285;-78
2021/08/02 08:52:36;;;;;;;5.23;2.70;;;;;;;;;;4980104;28;20222;-77
2021/08/02 08:55:41;;;;;;;4.77;2.63;;;;;;;;;;4982171;28;20181;-77
2021/08/02 08:58:46;;;;;;;4.30;2.87;;;;;;;;;;4992960;28;20190;-78
2021/08/02 09:02:01;;;;;;;3.97;2.77;;;;;;;;;;4996581;28;20175;-78
2021/08/02 09:05:06;;;;;;;3.27;1.97;;;;;;;;;;4973197;28;20202;-77
2021/08/02 09:08:13;;;;;;;2.63;1.80;;;;;;;;;;4995993;28;20645;-78
2021/08/02 09:11:24;;;;;;;8.57;3.10;;;;;;;;;;4995844;28;20672;-77
2021/08/02 09:14:28;;;;;;;5.13;2.00;;;;;;;;;;4984692;28;20190;-77
2021/08/02 09:17:34;;;;;;;5.33;2.10;;;;;;;;;;4984318;28;20530;-77
2021/08/02 09:20:39;;;;;;;3.37;2.97;;;;;;;;;;4983098;28;20202;-77
2021/08/02 09:23:52;;;;;;;5.40;2.57;;;;;;;;;;4982787;28;20699;-77
2021/08/02 09:26:56;;;;;;;6.07;2.57;;;;;;;;;;4994964;28;20614;-77
2021/08/02 09:30:20;;;;;;;4.93;2.57;;;;;;;;;;4977992;28;20210;-78
2021/08/02 09:33:27;;;;;;;2.60;2.40;;;;;;;;;;4994061;28;20218;-77
2021/08/02 09:36:41;;;;;;;5.53;1.90;;;;;;;;;;4994493;28;20194;-76
2021/08/02 09:39:45;;;;;;;3.70;1.83;;;;;;;;;;4963167;28;20187;-77
2021/08/02 09:42:54;;;;;;;2.60;2.07;;;;;;;;;;4994058;28;20225;-77
2021/08/02 09:46:00;;;;;;;1.90;1.60;;;;;;;;;;4963469;28;20634;-76
2021/08/02 09:49:04;;;;;;;5.60;1.30;;;;;;;;;;4989399;28;20201;-77
2021/08/02 09:52:08;;;;;;;1.87;1.10;;;;;;;;;;4982057;28;20226;-77
2021/08/02 09:55:12;;;;;;;1.83;1.33;;;;;;;;;;4994595;28;20187;-77
2021/08/02 09:58:21;;;;;;;1.50;1.10;;;;;;;;;;4993871;28;20194;-76
2021/08/02 10:01:25;;;;;;;2.73;1.40;;;;;;;;;;4993981;28;20191;-77
2021/08/02 10:04:32;;;;;;;1.63;1.20;;;;;;;;;;4982685;28;20174;-77
2021/08/02 10:07:37;;;;;;;2.53;1.10;;;;;;;;;;4993401;28;20202;-78
2021/08/02 10:10:41;;;;;;;1.63;1.20;;;;;;;;;;4993654;28;20213;-77
2021/08/02 10:13:46;;;;;;;2.10;1.60;;;;;;;;;;4970470;28;20231;-77
2021/08/02 10:16:51;;;;;;;1.60;1.40;;;;;;;;;;4982575;28;20511;-77
2021/08/02 10:19:55;;;;;;;1.83;1.40;;;;;;;;;;4970698;28;20186;-77
2021/08/02 10:23:01;;;;;;;2.03;1.20;;;;;;;;;;4994387;28;20210;-77
2021/08/02 10:26:20;;;;;;;3.03;1.60;;;;;;;;;;4996576;28;20503;-77
2021/08/02 10:29:36;;;;;;;3.10;1.80;;;;;;;;;;4996112;28;20647;-77
2021/08/02 10:32:51;;;;;;;2.00;1.67;;;;;;;;;;4984387;28;20220;-78
2021/08/02 10:35:55;;;;;;;2.47;1.63;;;;;;;;;;4995911;28;20195;-77
2021/08/02 10:39:00;;;;;;;2.30;1.60;;;;;;;;;;4984794;28;20635;-78
2021/08/02 10:42:05;;;;;;;4.23;1.60;;;;;;;;;;4973198;28;20693;-77
2021/08/02 10:45:09;;;;;;;6.03;2.10;;;;;;;;;;4983811;28;20194;-77
2021/08/02 10:48:21;;;;;;;2.17;1.70;;;;;;;;;;4995765;28;20196;-78
2021/08/02 10:51:26;;;;;;;3.07;1.50;;;;;;;;;;4979410;28;20219;-77
2021/08/02 10:54:38;;;;;;;1.85;1.58;;;;;;;;;;4996104;28;20194;-77
2021/08/02 10:57:42;;;;;;;3.38;1.50;;;;;;;;;;4984284;28;20191;-77
2021/08/02 11:00:54;;;;;;;1.80;1.60;;;;;;;;;;4985175;28;20185;-78
2021/08/02 11:04:11;;;;;;;2.35;1.58;;;;;;;;;;4977450;28;20564;-77
2021/08/02 11:07:16;;;;;;;3.30;1.48;;;;;;;;;;5028869;23;20230;-74
2021/08/02 11:10:21;;;;;;;2.22;1.30;;;;;;;;;;5008101;28;20537;-74
2021/08/02 11:13:26;;;;;;;3.40;1.20;;;;;;;;;;5018396;28;20705;-74
2021/08/02 11:16:48;;;;;;;2.42;1.77;;;;;;;;;;5052759;28;20195;-74
2021/08/02 11:20:01;;;;;;;1.65;1.50;;;;;;;;;;5056561;28;20633;-74
2021/08/02 11:23:05;;;;;;;2.37;1.90;;;;;;;;;;5023656;28;20562;-74
2021/08/02 11:26:11;;;;;;;2.27;1.90;;;;;;;;;;5036604;28;20185;-75
2021/08/02 11:29:19;;;;;;;3.67;1.67;;;;;;;;;;5024078;28;20180;-75
2021/08/02 11:32:23;;;;;;;1.85;1.27;;;;;;;;;;5042577;28;20228;-74
2021/08/02 11:35:33;;;;;;;2.00;1.40;;;;;;;;;;5023684;28;20184;-75
2021/08/02 11:38:38;;;;;;;5.73;1.73;;;;;;;;;;5035751;28;20187;-74
2021/08/02 11:41:46;;;;;;;7.33;1.73;;;;;;;;;;5023719;28;20183;-74
2021/08/02 11:44:54;;;;;;;2.35;1.50;;;;;;;;;;5048869;28;20183;-74
2021/08/02 11:48:02;;;;;;;2.13;1.50;;;;;;;;;;5043398;28;20190;-74
2021/08/02 11:51:07;;;;;;;3.47;1.67;;;;;;;;;;5055721;28;20215;-75
2021/08/02 11:54:23;;;;;;;3.90;1.60;;;;;;;;;;5055377;28;20199;-75
2021/08/02 11:57:27;;;;;;;2.17;1.58;;;;;;;;;;5055716;28;20180;-74
2021/08/02 12:00:31;;;;;;;1.65;1.42;;;;;;;;;;5023121;28;20194;-74
2021/08/02 12:03:35;;;;;;;2.50;1.58;;;;;;;;;;5049683;28;20221;-74
2021/08/02 12:07:07;;;;;;;3.20;1.40;;;;;;;;;;5043497;28;20205;-74
2021/08/02 12:10:15;;;;;;;13.82;3.45;;;;;;;;;;5055607;28;20198;-74
2021/08/02 12:13:19;;;;;;;9.73;2.25;;;;;;;;;;5054541;28;20206;-74
2021/08/02 12:16:31;;;;;;;2.08;1.30;;;;;;;;;;5032213;28;20194;-75
2021/08/02 12:20:01;;;;;;;6.55;1.75;;;;;;;;;;5055182;28;20540;-75
2021/08/02 12:23:07;;;;;;;3.40;1.58;;;;;;;;;;5036053;28;20214;-75
2021/08/02 12:26:19;;;;;;;1.83;1.30;;;;;;;;;;5054929;28;20186;-74
2021/08/02 12:29:29;;;;;;;2.00;1.40;;;;;;;;;;5043015;28;20188;-74
2021/08/02 12:32:36;;;;;;;2.40;1.58;;;;;;;;;;5034868;28;20234;-75
2021/08/02 12:35:43;;;;;;;3.60;1.30;;;;;;;;;;5051296;28;20206;-75
2021/08/02 12:38:50;;;;;;;2.88;1.80;;;;;;;;;;5031014;28;20204;-75
2021/08/02 12:41:55;;;;;;;1.73;1.40;;;;;;;;;;5037762;28;20198;-75
2021/08/02 12:44:59;;;;;;;3.47;1.90;;;;;;;;;;5047035;28;20191;-76
2021/08/02 12:48:03;;;;;;;3.35;1.40;;;;;;;;;;5054654;28;20188;-75
2021/08/02 12:51:08;;;;;;;3.00;1.50;;;;;;;;;;5042885;28;20547;-75
2021/08/02 12:54:15;;;;;;;2.05;1.50;;;;;;;;;;5021540;28;20196;-75
2021/08/02 12:57:19;;;;;;;2.40;1.30;;;;;;;;;;5054532;28;20207;-75
2021/08/02 13:00:24;;;;;;;2.83;1.48;;;;;;;;;;5044700;28;20193;-76
2021/08/02 13:03:28;;;;;;;2.00;1.20;;;;;;;;;;5031281;28;20215;-75
2021/08/02 13:06:32;;;;;;;2.22;1.40;;;;;;;;;;5054834;28;20656;-76
2021/08/02 13:09:36;;;;;;;3.78;1.23;;;;;;;;;;5052850;28;20192;-75
2021/08/02 13:12:41;;;;;;;1.77;1.20;;;;;;;;;;5041119;28;20228;-75
2021/08/02 13:15:45;;;;;;;2.47;1.10;;;;;;;;;;5053113;28;20196;-75
2021/08/02 13:18:51;;;;;;;2.35;1.27;;;;;;;;;;5041545;28;20535;-75
2021/08/02 13:21:55;;;;;;;39.35;5.40;;;;;;;;;;5041478;28;20194;-75
2021/08/02 13:28:22;;;;;;;32.38;5.63;;;;;;;;;;5028074;28;20524;-75
2021/08/02 13:31:26;;;;;;;2.35;1.40;;;;;;;;;;5047836;28;20223;-75
2021/08/02 13:34:32;;;;;;;1.83;1.20;;;;;;;;;;5041325;28;20199;-75
2021/08/02 13:37:37;;;;;;;1.80;1.30;;;;;;;;;;5043634;23;20247;-75
2021/08/02 13:40:41;;;;;;;5.13;1.83;;;;;;;;;;5033409;28;20188;-75
2021/08/02 13:43:44;;;;;;;2.17;1.45;;;;;;;;;;5004466;28;20561;-75
2021/08/02 13:46:51;;;;;;;62.13;6.32;;;;;;;;;;5013830;28;20632;-75
2021/08/02 13:49:55;;;;;;;4.63;1.60;;;;;;;;;;5022315;22;20632;-75
2021/08/02 13:52:59;;;;;;;1.38;1.27;;;;;;;;;;5019675;28;20224;-74
2021/08/02 13:56:03;;;;;;;2.20;1.52;;;;;;;;;;5033343;28;20204;-74
2021/08/02 13:59:08;;;;;;;3.22;1.42;;;;;;;;;;5021064;28;20544;-74
2021/08/02 14:02:12;;;;;;;4.60;1.60;;;;;;;;;;5021053;28;20222;-75
2021/08/02 14:05:16;;;;;;;2.08;1.30;;;;;;;;;;5033074;28;20650;-75
2021/08/02 14:08:21;;;;;;;1.92;1.17;;;;;;;;;;5021428;28;20180;-75
2021/08/02 14:11:26;;;;;;;3.33;1.45;;;;;;;;;;5021243;28;20214;-75
2021/08/02 14:14:34;;;;;;;4.18;1.50;;;;;;;;;;5033076;28;20185;-75
2021/08/02 14:18:05;;;;;;;4.82;1.85;;;;;;;;;;5022363;28;20177;-75
2021/08/02 14:21:13;;;;;;;7.65;1.60;;;;;;;;;;5021711;28;20189;-76
2021/08/02 14:24:17;;;;;;;4.53;1.60;;;;;;;;;;5032872;28;20195;-75
2021/08/02 14:27:22;;;;;;;2.47;1.33;;;;;;;;;;5014097;28;20182;-75
2021/08/02 14:30:26;;;;;;;1.63;1.30;;;;;;;;;;5023111;28;20521;-75
2021/08/02 14:33:31;;;;;;;2.50;1.45;;;;;;;;;;5033396;28;20227;-75
2021/08/02 14:36:37;;;;;;;3.13;1.30;;;;;;;;;;5023045;28;20193;-76
2021/08/02 14:39:45;;;;;;;3.35;1.50;;;;;;;;;;5038196;28;20187;-76
2021/08/02 14:42:49;;;;;;;2.30;1.40;;;;;;;;;;5036771;28;20218;-76
2021/08/02 14:45:53;;;;;;;2.78;1.75;;;;;;;;;;5023172;28;20200;-75
2021/08/02 14:49:00;;;;;;;2.60;1.40;;;;;;;;;;5020682;28;20204;-75
2021/08/02 14:52:04;;;;;;;3.45;1.40;;;;;;;;;;5020784;28;20235;-75
2021/08/02 14:55:11;;;;;;;4.93;1.50;;;;;;;;;;5020293;28;20207;-75
2021/08/02 14:58:16;;;;;;;1.55;1.40;;;;;;;;;;5032756;28;20195;-75
2021/08/02 15:01:25;;;;;;;1.48;1.38;;;;;;;;;;5033075;28;20209;-75
2021/08/02 15:04:31;;;;;;;3.55;1.58;;;;;;;;;;5032851;28;20206;-75
2021/08/02 15:07:36;;;;;;;1.65;1.40;;;;;;;;;;5032462;28;20203;-75
2021/08/02 15:10:40;;;;;;;1.70;1.33;;;;;;;;;;5000822;28;20204;-76
2021/08/02 15:13:45;;;;;;;3.38;1.63;;;;;;;;;;5026574;28;20706;-75
2021/08/02 15:16:56;;;;;;;3.55;1.65;;;;;;;;;;5017332;28;20227;-75
2021/08/02 15:20:02;;;;;;;1.88;1.27;;;;;;;;;;5009574;28;20200;-75
2021/08/02 15:23:13;;;;;;;3.70;1.40;;;;;;;;;;5031443;28;20214;-74
2021/08/02 15:26:19;;;;;;;2.47;1.30;;;;;;;;;;5028638;28;20191;-75
2021/08/02 15:29:23;;;;;;;2.90;1.30;;;;;;;;;;5020169;28;21028;-75
2021/08/02 15:32:31;;;;;;;2.55;1.42;;;;;;;;;;5032260;28;20228;-75
2021/08/02 15:35:35;;;;;;;3.83;1.35;;;;;;;;;;5028682;28;20193;-75
2021/08/02 15:38:40;;;;;;;3.70;1.60;;;;;;;;;;5032681;28;20185;-75
2021/08/02 15:41:50;;;;;;;3.27;1.57;;;;;;;;;;5020661;28;20201;-75
2021/08/02 15:45:07;;;;;;;2.53;1.70;;;;;;;;;;5032012;28;20181;-75
2021/08/02 15:48:12;;;;;;;4.87;1.60;;;;;;;;;;5030852;28;20192;-75
2021/08/02 15:51:20;;;;;;;4.27;1.70;;;;;;;;;;5020025;28;20215;-75
2021/08/02 15:54:25;;;;;;;2.63;1.30;;;;;;;;;;5031954;28;20194;-75
2021/08/02 15:57:34;;;;;;;3.10;1.50;;;;;;;;;;5031743;28;20181;-75
2021/08/02 16:00:40;;;;;;;2.60;1.60;;;;;;;;;;5019337;28;20190;-75
2021/08/02 16:03:55;;;;;;;3.13;1.37;;;;;;;;;;5023491;28;20218;-76
2021/08/02 16:07:02;;;;;;;3.07;1.43;;;;;;;;;;5019692;28;20180;-76
2021/08/02 16:10:12;;;;;;;2.67;1.40;;;;;;;;;;5019518;28;20196;-76
2021/08/02 16:13:20;;;;;;;19.20;8.07;;;;;;;;;;5031288;28;20225;-76
2021/08/02 16:16:25;;;;;;;2.17;1.53;;;;;;;;;;5019493;28;20181;-76
2021/08/02 16:19:28;;;;;;;5.83;3.40;;;;;;;;;;5031576;28;20204;-76
2021/08/02 16:22:33;;;;;;;6.33;4.10;;;;;;;;;;5001684;28;20571;-76
2021/08/02 16:25:37;;;;;;;2.73;1.30;;;;;;;;;;5018898;28;20189;-75
2021/08/02 16:28:41;;;;;;;5.40;2.57;;;;;;;;;;5031114;28;20204;-76
2021/08/02 16:31:45;;;;;;;4.50;2.40;;;;;;;;;;4996329;28;20177;-76
2021/08/02 16:34:49;;;;;;;1.37;1.20;;;;;;;;;;5030821;28;20189;-76
2021/08/02 16:37:54;;;;;;;4.00;1.63;;;;;;;;;;5018683;28;20201;-75
2021/08/02 16:40:59;;;;;;;4.77;1.67;;;;;;;;;;5030795;28;20196;-76
2021/08/02 16:44:03;;;;;;;7.07;2.10;;;;;;;;;;5030738;28;20706;-76
2021/08/02 16:47:07;;;;;;;3.37;1.90;;;;;;;;;;5018156;28;20193;-76
2021/08/02 16:50:12;;;;;;;2.27;1.50;;;;;;;;;;5007508;28;20209;-76
2021/08/02 16:53:18;;;;;;;3.37;1.53;;;;;;;;;;5030827;28;21341;-75
2021/08/02 16:56:22;;;;;;;2.67;1.30;;;;;;;;;;5031073;28;20177;-75
2021/08/02 16:59:26;;;;;;;2.20;1.40;;;;;;;;;;5010782;28;20185;-75
2021/08/02 17:02:30;;;;;;;3.97;1.47;;;;;;;;;;5025465;28;20225;-74
2021/08/02 17:05:34;;;;;;;2.47;1.70;;;;;;;;;;4999507;28;20181;-74
2021/08/02 17:08:39;;;;;;;3.60;1.60;;;;;;;;;;5013568;28;20192;-75
2021/08/02 17:11:43;;;;;;;13.37;4.27;;;;;;;;;;5006629;28;20181;-74
2021/08/02 17:14:47;;;;;;;1.57;1.47;;;;;;;;;;5012105;28;20189;-75
2021/08/02 17:17:52;;;;;;;2.13;1.20;;;;;;;;;;5030859;28;20628;-75
2021/08/02 17:20:56;;;;;;;7.67;1.43;;;;;;;;;;5007219;28;20192;-74
2021/08/02 17:24:01;;;;;;;1.43;1.33;;;;;;;;;;5029474;28;20220;-74
2021/08/02 17:27:05;;;;;;;5.47;1.80;;;;;;;;;;5018240;28;20185;-74
2021/08/02 17:30:10;;;;;;;2.50;1.43;;;;;;;;;;5031051;28;20204;-74
2021/08/02 17:33:15;;;;;;;1.73;1.23;;;;;;;;;;5029768;28;20718;-74
2021/08/02 17:36:19;;;;;;;3.60;1.40;;;;;;;;;;5010261;28;20182;-74
2021/08/02 17:39:23;;;;;;;2.60;1.60;;;;;;;;;;5008040;28;20181;-74
2021/08/02 17:42:27;;;;;;;2.53;1.50;;;;;;;;;;5029970;28;20224;-74
2021/08/02 17:45:32;;;;;;;5.03;1.70;;;;;;;;;;5029971;28;20204;-74
2021/08/02 17:48:37;;;;;;;5.83;1.43;;;;;;;;;;5029706;28;20185;-74
2021/08/02 17:51:42;;;;;;;2.50;1.63;;;;;;;;;;5017616;28;20729;-74
2021/08/02 17:54:46;;;;;;;3.53;1.50;;;;;;;;;;4998117;28;20633;-74
2021/08/02 17:57:51;;;;;;;5.13;1.70;;;;;;;;;;5014095;28;20520;-74
2021/08/02 18:00:55;;;;;;;3.37;1.40;;;;;;;;;;5030068;28;20181;-74
2021/08/02 18:04:00;;;;;;;4.33;1.40;;;;;;;;;;5029113;28;20225;-74
2021/08/02 18:07:04;;;;;;;3.53;1.47;;;;;;;;;;5017735;28;20184;-73
2021/08/02 18:10:08;;;;;;;3.07;1.60;;;;;;;;;;4997979;28;20196;-74
2021/08/02 18:13:13;;;;;;;2.90;1.50;;;;;;;;;;5007212;28;20220;-74
2021/08/02 18:16:18;;;;;;;4.07;1.37;;;;;;;;;;5010380;28;20189;-73
2021/08/02 18:19:24;;;;;;;3.80;1.60;;;;;;;;;;5031199;28;20184;-74
2021/08/02 18:22:28;;;;;;;5.47;1.60;;;;;;;;;;5020776;28;20224;-73
2021/08/02 18:25:31;;;;;;;2.23;1.40;;;;;;;;;;5033472;28;20188;-73
2021/08/02 18:28:36;;;;;;;3.03;1.40;;;;;;;;;;5033120;28;20528;-73
2021/08/02 18:31:40;;;;;;;1.60;1.30;;;;;;;;;;5033357;28;20196;-73
2021/08/02 18:34:45;;;;;;;3.90;1.50;;;;;;;;;;5032952;28;20551;-73
2021/08/02 18:37:50;;;;;;;3.07;1.73;;;;;;;;;;5033139;28;20192;-74
2021/08/02 18:40:57;;;;;;;2.17;1.60;;;;;;;;;;5003521;28;20529;-74